Time;durP1;ratioP1;P1;durP2;ratioP2;P2;SDS_P1;SDS_P2;PMS_P1;PMS_P2;Temp;Humidity;BMP_temperature;BMP_pressure;BME280_temperature;BME280_humidity;BME280_pressure;Samples;Min_cycle;Max_cycle;Signal;HPM_P1;HPM_P2
2023/11/11 00:01:48;;;;;;;26.00;18.10;;;;;;;5.69;100.00;98886.98;177423;1260;46157;-87
2023/11/11 00:05:51;;;;;;;34.10;19.00;;;;;;;5.49;100.00;98885.67;177626;1260;46056;-86
2023/11/11 00:09:55;;;;;;;41.30;23.60;;;;;;;5.40;100.00;98885.16;178868;1260;46358;-87
2023/11/11 00:13:58;;;;;;;45.20;28.20;;;;;;;5.34;100.00;98886.37;179173;1260;59518;-86
2023/11/11 00:18:02;;;;;;;47.90;30.50;;;;;;;5.31;100.00;98886.41;178489;1261;44820;-86
2023/11/11 00:22:06;;;;;;;61.60;36.70;;;;;;;5.28;100.00;98886.30;178521;1259;45483;-86
2023/11/11 00:26:09;;;;;;;114.00;58.50;;;;;;;5.24;100.00;98891.01;178815;1260;46575;-86
2023/11/11 00:30:13;;;;;;;94.60;59.90;;;;;;;5.16;100.00;98885.39;178676;1260;46054;-87
2023/11/11 00:34:20;;;;;;;44.20;28.10;;;;;;;5.10;100.00;98886.34;178346;1261;59467;-87
2023/11/11 00:38:25;;;;;;;30.70;21.50;;;;;;;5.08;100.00;98884.06;178973;1260;45983;-87
2023/11/11 00:42:29;;;;;;;33.90;26.70;;;;;;;5.04;100.00;98878.62;178962;1261;45931;-86
2023/11/11 00:46:33;;;;;;;22.80;17.90;;;;;;;4.94;100.00;98878.68;178027;1260;46214;-86
2023/11/11 00:50:37;;;;;;;25.00;15.90;;;;;;;4.86;100.00;98872.44;178881;1261;390533;-87
2023/11/11 00:54:41;;;;;;;22.90;15.60;;;;;;;4.75;100.00;98871.23;177595;1264;59561;-85
2023/11/11 00:58:45;;;;;;;19.20;14.80;;;;;;;4.63;100.00;98868.02;178900;1260;44723;-87
2023/11/11 01:02:52;;;;;;;22.70;15.30;;;;;;;4.51;100.00;98869.29;177908;1260;44869;-87
2023/11/11 01:06:57;;;;;;;23.10;16.20;;;;;;;4.40;100.00;98863.84;177809;1260;46108;-87
2023/11/11 01:11:00;;;;;;;25.20;17.10;;;;;;;4.33;100.00;98861.20;179403;1261;45921;-87
2023/11/11 01:15:08;;;;;;;25.40;16.60;;;;;;;4.34;100.00;98859.54;177899;1263;58236;-87
2023/11/11 01:19:12;;;;;;;23.50;16.50;;;;;;;4.36;100.00;98858.48;179478;1260;46124;-87
2023/11/11 01:23:16;;;;;;;24.90;16.30;;;;;;;4.32;100.00;98857.73;177998;1264;45888;-87
2023/11/11 01:27:19;;;;;;;17.20;14.00;;;;;;;4.32;100.00;98857.25;177873;1260;44762;-87
2023/11/11 01:31:26;;;;;;;19.60;13.90;;;;;;;4.33;100.00;98855.26;178116;1260;45894;-87
2023/11/11 01:35:29;;;;;;;17.00;15.20;;;;;;;4.37;100.00;98855.80;177993;1260;60559;-87
2023/11/11 01:39:36;;;;;;;23.10;14.80;;;;;;;4.45;100.00;98850.09;177268;1261;46197;-87
2023/11/11 01:43:40;;;;;;;18.00;14.70;;;;;;;4.59;100.00;98841.40;177302;1261;45967;-87
2023/11/11 01:47:43;;;;;;;23.00;14.00;;;;;;;4.73;100.00;98838.35;178509;1261;45974;-85
2023/11/11 01:51:47;;;;;;;20.50;12.30;;;;;;;4.78;100.00;98841.30;178120;1261;46111;-86
2023/11/11 01:55:52;;;;;;;18.50;12.80;;;;;;;4.67;100.00;98843.77;178833;1260;59627;-86
2023/11/11 02:00:25;;;;;;;21.60;15.20;;;;;;;4.57;100.00;98836.86;178013;1262;46102;-87
2023/11/11 02:04:29;;;;;;;17.60;15.10;;;;;;;4.46;100.00;98836.85;177794;1264;46069;-88
2023/11/11 02:08:33;;;;;;;19.50;13.90;;;;;;;4.43;100.00;98830.37;177499;1259;46561;-88
2023/11/11 02:12:37;;;;;;;18.80;13.60;;;;;;;4.49;100.00;98824.30;177609;1260;46355;-88
2023/11/11 02:16:40;;;;;;;15.20;11.20;;;;;;;4.57;100.00;98822.78;177205;1261;58000;-87
2023/11/11 02:21:03;;;;;;;19.00;14.10;;;;;;;4.63;100.00;98819.20;177319;1260;45113;-87
2023/11/11 02:25:11;;;;;;;24.20;13.60;;;;;;;4.63;100.00;98814.92;177129;1263;46006;-87
2023/11/11 02:29:14;;;;;;;16.90;11.90;;;;;;;4.61;100.00;98808.42;177303;1260;45129;-87
2023/11/11 02:33:46;;;;;;;17.30;14.10;;;;;;;4.60;100.00;98802.52;177497;1260;46099;-87
2023/11/11 02:37:51;;;;;;;11.60;9.10;;;;;;;4.55;100.00;98803.45;177591;1260;59627;-87
2023/11/11 02:41:55;;;;;;;23.30;14.30;;;;;;;4.41;100.00;98810.02;177521;1260;45960;-87
2023/11/11 02:46:00;;;;;;;15.80;11.30;;;;;;;4.42;100.00;98804.86;177050;1264;46098;-88
2023/11/11 02:50:05;;;;;;;14.80;12.20;;;;;;;4.38;100.00;98802.18;177233;1260;46143;-86
2023/11/11 02:54:09;;;;;;;15.70;11.40;;;;;;;4.40;100.00;98803.77;177601;1260;46010;-87
2023/11/11 02:58:12;;;;;;;18.10;11.80;;;;;;;4.41;100.00;98803.71;177305;1260;58900;-87
2023/11/11 03:02:23;;;;;;;19.20;13.00;;;;;;;4.39;100.00;98802.76;177874;1259;46089;-84
2023/11/11 03:06:26;;;;;;;17.40;13.50;;;;;;;4.37;100.00;98800.85;179905;1260;46127;-87
2023/11/11 03:10:30;;;;;;;21.80;16.70;;;;;;;4.36;100.00;98805.46;179443;1260;46109;-87
2023/11/11 03:14:33;;;;;;;18.30;14.70;;;;;;;4.37;100.00;98811.88;178330;1260;51166;-87
2023/11/11 03:18:40;;;;;;;21.90;14.10;;;;;;;4.34;100.00;98817.40;178855;1261;58328;-87
2023/11/11 03:22:43;;;;;;;21.80;14.20;;;;;;;4.31;100.00;98820.65;178236;1262;46152;-87
2023/11/11 03:26:47;;;;;;;15.10;11.30;;;;;;;4.35;100.00;98808.71;177421;1260;46087;-87
2023/11/11 03:30:50;;;;;;;23.20;12.10;;;;;;;4.45;100.00;98804.05;177799;1259;45999;-87
2023/11/11 03:34:54;;;;;;;16.80;15.10;;;;;;;4.50;100.00;98800.55;177494;1261;45882;-87
2023/11/11 03:38:57;;;;;;;20.10;14.50;;;;;;;4.49;100.00;98798.48;178075;1261;58353;-87
2023/11/11 03:43:02;;;;;;;12.10;10.50;;;;;;;4.46;100.00;98797.16;176959;1260;46176;-86
2023/11/11 03:47:07;;;;;;;11.10;9.20;;;;;;;4.45;100.00;98796.41;177209;1260;46054;-86
2023/11/11 03:51:12;;;;;;;15.50;10.50;;;;;;;4.46;100.00;98793.45;177109;1260;46003;-87
2023/11/11 03:55:18;;;;;;;15.50;10.40;;;;;;;4.45;100.00;98777.76;178188;1260;45992;-87
2023/11/11 03:59:21;;;;;;;17.60;12.40;;;;;;;4.48;100.00;98774.38;179473;1260;58220;-87
2023/11/11 04:03:25;;;;;;;22.80;14.20;;;;;;;4.48;100.00;98771.92;177587;1260;46233;-88
2023/11/11 04:07:31;;;;;;;19.50;15.80;;;;;;;4.50;100.00;98768.27;178706;1260;45984;-87
2023/11/11 04:11:34;;;;;;;19.80;12.20;;;;;;;4.49;100.00;98768.50;177871;1260;46215;-88
2023/11/11 04:15:39;;;;;;;16.10;11.50;;;;;;;4.58;100.00;98766.70;178202;1260;46117;-87
2023/11/11 04:19:42;;;;;;;23.90;14.70;;;;;;;4.63;100.00;98770.52;177493;1260;59378;-87
2023/11/11 04:23:45;;;;;;;17.70;13.10;;;;;;;4.65;100.00;98767.00;177417;1261;44618;-89
2023/11/11 04:27:57;;;;;;;24.10;12.20;;;;;;;4.55;100.00;98770.98;177411;1263;44151;-86
2023/11/11 04:32:01;;;;;;;13.90;10.30;;;;;;;4.48;100.00;98769.48;177379;1262;45986;-87
2023/11/11 04:36:04;;;;;;;23.60;14.20;;;;;;;4.43;100.00;98774.42;177493;1260;46137;-87
2023/11/11 04:40:10;;;;;;;22.80;15.50;;;;;;;4.41;100.00;98768.05;178326;1260;58232;-87
2023/11/11 04:44:14;;;;;;;19.20;13.60;;;;;;;4.32;100.00;98765.30;178395;1260;46151;-87
2023/11/11 04:48:17;;;;;;;23.20;13.70;;;;;;;4.29;100.00;98762.33;177668;1261;44155;-87
2023/11/11 04:52:21;;;;;;;22.50;12.10;;;;;;;4.19;100.00;98763.52;178457;1261;44193;-85
2023/11/11 04:56:24;;;;;;;18.10;14.50;;;;;;;4.15;100.00;98766.42;178507;1259;45920;-87
2023/11/11 05:00:29;;;;;;;19.70;15.00;;;;;;;4.19;100.00;98766.47;177960;1259;60040;-87
2023/11/11 05:04:32;;;;;;;18.20;13.50;;;;;;;4.23;100.00;98767.35;177961;1260;44704;-87
2023/11/11 05:08:36;;;;;;;18.00;12.90;;;;;;;4.21;100.00;98762.33;178477;1260;46037;-87
2023/11/11 05:12:40;;;;;;;13.50;10.80;;;;;;;4.15;100.00;98768.39;178602;1259;47656;-87
2023/11/11 05:16:50;;;;;;;15.90;11.60;;;;;;;4.05;100.00;98765.66;178352;1262;45959;-87
2023/11/11 05:20:54;;;;;;;15.40;12.70;;;;;;;3.92;100.00;98765.92;177898;1260;56982;-88
2023/11/11 05:24:57;;;;;;;34.40;23.00;;;;;;;3.83;100.00;98760.69;179277;1260;44229;-88
2023/11/11 05:29:01;;;;;;;31.50;24.50;;;;;;;3.76;100.00;98764.94;179110;1262;44166;-85
2023/11/11 05:33:07;;;;;;;21.10;11.10;;;;;;;3.61;100.00;98769.70;178241;1260;46124;-87
2023/11/11 05:37:11;;;;;;;17.50;12.20;;;;;;;3.43;100.00;98767.21;178955;1261;44888;-87
2023/11/11 05:41:15;;;;;;;18.20;11.10;;;;;;;3.32;100.00;98765.81;178707;1260;58220;-87
2023/11/11 05:45:19;;;;;;;14.90;10.20;;;;;;;3.26;100.00;98769.17;177907;1260;46063;-86
2023/11/11 05:49:23;;;;;;;17.40;12.40;;;;;;;3.30;100.00;98772.77;178039;1260;46017;-87
2023/11/11 05:53:26;;;;;;;16.20;12.50;;;;;;;3.31;100.00;98780.58;177498;1262;46096;-88
2023/11/11 05:57:31;;;;;;;15.10;11.30;;;;;;;3.27;100.00;98783.02;178006;1262;46117;-88
2023/11/11 06:01:44;;;;;;;17.50;11.20;;;;;;;3.19;100.00;98784.45;177987;1260;58280;-87
2023/11/11 06:05:48;;;;;;;17.60;11.20;;;;;;;3.13;100.00;98786.48;177523;1259;46217;-88
2023/11/11 06:09:53;;;;;;;17.80;13.50;;;;;;;3.11;100.00;98795.08;177990;1260;46205;-87
2023/11/11 06:13:57;;;;;;;11.20;9.70;;;;;;;3.08;100.00;98803.99;178913;1260;45191;-87
2023/11/11 06:18:01;;;;;;;22.90;14.50;;;;;;;3.10;100.00;98801.43;177621;1260;44240;-87
2023/11/11 06:22:05;;;;;;;18.70;12.00;;;;;;;3.20;100.00;98804.05;178850;1260;58203;-87
2023/11/11 06:26:09;;;;;;;18.90;11.80;;;;;;;3.23;100.00;98799.95;177223;1260;46051;-88
2023/11/11 06:30:12;;;;;;;22.00;10.90;;;;;;;3.23;100.00;98803.43;177482;1260;45997;-87
2023/11/11 06:34:16;;;;;;;15.60;11.10;;;;;;;3.22;100.00;98806.34;178379;1260;44097;-86
2023/11/11 06:38:20;;;;;;;16.20;10.70;;;;;;;3.27;100.00;98803.48;178058;1260;46011;-85
2023/11/11 06:42:23;;;;;;;15.80;11.20;;;;;;;3.41;100.00;98806.45;178262;1263;59445;-87
2023/11/11 06:46:27;;;;;;;25.10;16.60;;;;;;;3.68;100.00;98800.55;177443;1259;46101;-88
2023/11/11 06:50:32;;;;;;;22.60;15.80;;;;;;;3.97;100.00;98801.64;178062;1260;44318;-87
2023/11/11 06:54:35;;;;;;;19.60;14.80;;;;;;;4.25;100.00;98807.42;177807;1262;46108;-89
2023/11/11 06:58:42;;;;;;;19.50;12.40;;;;;;;4.52;100.00;98810.00;177319;1260;46085;-88
2023/11/11 07:02:47;;;;;;;13.10;11.20;;;;;;;4.77;100.00;98808.17;177674;1260;59449;-88
2023/11/11 07:06:51;;;;;;;16.70;12.40;;;;;;;4.93;100.00;98805.46;177603;1260;46093;-87
2023/11/11 07:10:54;;;;;;;17.00;11.40;;;;;;;5.09;100.00;98803.72;178026;1260;46104;-87
2023/11/11 07:14:58;;;;;;;19.40;12.00;;;;;;;5.17;100.00;98798.96;178120;1262;44378;-88
2023/11/11 07:19:03;;;;;;;16.60;10.80;;;;;;;5.12;100.00;98801.48;178396;1259;44836;-88
2023/11/11 07:23:07;;;;;;;14.50;9.40;;;;;;;4.98;100.00;98811.98;177856;1260;58283;-88
2023/11/11 07:27:11;;;;;;;17.20;10.80;;;;;;;4.87;100.00;98815.83;178915;1260;46102;-84
2023/11/11 07:31:19;;;;;;;18.90;10.80;;;;;;;4.85;100.00;98815.99;178419;1263;46090;-87
2023/11/11 07:35:23;;;;;;;15.40;11.10;;;;;;;4.86;100.00;98815.91;179008;1261;44447;-87
2023/11/11 07:39:27;;;;;;;22.10;13.60;;;;;;;4.80;100.00;98817.60;177447;1259;46125;-87
2023/11/11 07:43:30;;;;;;;15.60;12.00;;;;;;;4.84;100.00;98816.56;177608;1260;59532;-87
2023/11/11 07:47:38;;;;;;;15.90;11.80;;;;;;;4.92;100.00;98816.14;177102;1261;45980;-87
2023/11/11 07:51:43;;;;;;;13.40;9.40;;;;;;;5.04;100.00;98810.45;178533;1260;45937;-86
2023/11/11 07:55:55;;;;;;;37.90;22.20;;;;;;;5.12;100.00;98797.77;178431;1260;45994;-87
2023/11/11 08:00:06;;;;;;;31.10;22.30;;;;;;;5.16;100.00;98796.45;178061;1260;46102;-88
2023/11/11 08:04:10;;;;;;;20.20;15.40;;;;;;;5.17;100.00;98796.55;177670;1260;58016;-85
2023/11/11 08:08:14;;;;;;;19.60;13.60;;;;;;;5.26;100.00;98793.83;178144;1261;46070;-88
2023/11/11 08:12:19;;;;;;;22.00;14.90;;;;;;;5.46;100.00;98789.77;179092;1260;46006;-88
2023/11/11 08:16:23;;;;;;;17.40;13.30;;;;;;;5.68;100.00;98786.48;177745;1261;46140;-88
2023/11/11 08:20:27;;;;;;;16.00;12.10;;;;;;;5.88;100.00;98788.14;177864;1260;46062;-86
2023/11/11 08:24:31;;;;;;;22.20;15.80;;;;;;;6.10;100.00;98785.58;177529;1260;58246;-88
2023/11/11 08:28:35;;;;;;;23.00;14.90;;;;;;;6.33;100.00;98784.48;177615;1259;46121;-87
2023/11/11 08:32:40;;;;;;;24.70;14.00;;;;;;;6.49;100.00;98785.33;177496;1259;46019;-87
2023/11/11 08:36:43;;;;;;;20.50;15.30;;;;;;;6.69;100.00;98782.50;178355;1261;45933;-88
2023/11/11 08:41:03;;;;;;;22.30;14.50;;;;;;;6.84;100.00;98784.91;177862;1264;46110;-87
2023/11/11 08:45:13;;;;;;;30.10;18.70;;;;;;;7.03;100.00;98782.12;178233;1261;57005;-88
2023/11/11 08:49:59;;;;;;;36.50;19.70;;;;;;;7.22;100.00;98783.38;178321;1260;45949;-85
2023/11/11 08:54:03;;;;;;;26.60;17.40;;;;;;;7.45;100.00;98790.86;178540;1264;46567;-89
2023/11/11 08:58:07;;;;;;;18.80;14.20;;;;;;;7.68;100.00;98789.98;177757;1264;46115;-88
2023/11/11 09:02:14;;;;;;;20.90;13.60;;;;;;;7.88;100.00;98787.17;178606;1260;46031;-85
2023/11/11 09:06:40;;;;;;;18.90;14.50;;;;;;;8.19;100.00;98787.14;177898;1261;58636;-89
2023/11/11 09:11:06;;;;;;;20.40;14.50;;;;;;;8.51;100.00;98789.04;178303;1268;46028;-87
2023/11/11 09:15:21;;;;;;;27.80;16.90;;;;;;;8.81;100.00;98788.06;178529;1260;93424;-85
2023/11/11 09:19:25;;;;;;;26.70;16.40;;;;;;;9.04;100.00;98786.38;178408;1267;46041;-84
2023/11/11 09:23:29;;;;;;;22.80;14.70;;;;;;;9.21;100.00;98781.98;178894;1267;45947;-85
2023/11/11 09:27:33;;;;;;;18.90;14.70;;;;;;;9.41;100.00;98774.95;179278;1262;59985;-82
2023/11/11 09:31:37;;;;;;;22.60;14.60;;;;;;;9.53;100.00;98770.36;178100;1266;46082;-86
2023/11/11 09:35:40;;;;;;;19.40;11.80;;;;;;;9.58;100.00;98774.23;177813;1266;45969;-85
2023/11/11 09:39:46;;;;;;;13.30;11.70;;;;;;;9.62;100.00;98774.52;177794;1264;46067;-85
2023/11/11 09:43:50;;;;;;;24.60;16.50;;;;;;;9.72;100.00;98777.99;178836;1263;44728;-86
2023/11/11 09:48:00;;;;;;;18.20;12.70;;;;;;;9.79;100.00;98784.84;178721;1264;59290;-83
2023/11/11 09:52:06;;;;;;;18.80;12.80;;;;;;;9.94;100.00;98783.86;178787;1264;44393;-82
2023/11/11 09:56:11;;;;;;;25.40;15.30;;;;;;;10.06;99.91;98775.38;178759;1263;46114;-84
2023/11/11 10:00:35;;;;;;;25.30;15.50;;;;;;;10.16;100.00;98775.61;178828;1264;46052;-87
2023/11/11 10:04:39;;;;;;;17.60;12.90;;;;;;;10.15;99.46;98771.95;179284;1262;43987;-85
2023/11/11 10:08:44;;;;;;;18.50;13.80;;;;;;;10.19;99.22;98771.09;178917;1261;59875;-83
2023/11/11 10:12:48;;;;;;;22.50;15.90;;;;;;;10.22;99.38;98772.27;178909;1264;46247;-85
2023/11/11 10:16:54;;;;;;;17.70;12.60;;;;;;;10.25;99.79;98767.78;179337;1263;45957;-86
2023/11/11 10:20:58;;;;;;;;;;;;;;;10.29;100.00;98761.70;180693;1262;43955;-86
2023/11/11 10:25:04;;;;;;;21.30;13.50;;;;;;;10.33;100.00;98757.33;179344;1262;43660;-85
2023/11/11 10:29:08;;;;;;;;;;;;;;;10.44;100.00;98754.27;178908;1264;57945;-86
2023/11/11 10:33:12;;;;;;;16.20;13.70;;;;;;;10.63;100.00;98749.79;178161;1263;45914;-85
2023/11/11 10:37:24;;;;;;;20.30;14.00;;;;;;;10.83;99.32;98746.98;178287;1263;46006;-88
2023/11/11 10:41:30;;;;;;;19.90;13.20;;;;;;;11.03;99.81;98747.88;178538;1264;46102;-87
2023/11/11 10:45:36;;;;;;;15.00;12.00;;;;;;;11.17;96.67;98742.05;178465;1266;46150;-86
2023/11/11 10:49:42;;;;;;;20.10;14.50;;;;;;;11.28;96.82;98741.14;178448;1264;59184;-80
2023/11/11 10:53:47;;;;;;;24.50;15.10;;;;;;;11.38;96.99;98737.57;177320;1263;46145;-83
2023/11/11 10:57:51;;;;;;;44.60;30.20;;;;;;;11.46;94.98;98734.86;179288;1263;45997;-84
2023/11/11 11:01:57;;;;;;;21.30;16.00;;;;;;;11.52;94.12;98737.11;178657;1262;46044;-86
2023/11/11 11:06:27;;;;;;;17.90;13.80;;;;;;;11.57;93.76;98733.09;177758;1261;46416;-86
2023/11/11 11:10:38;;;;;;;19.40;14.30;;;;;;;11.65;93.85;98727.62;177903;1263;59623;-87
2023/11/11 11:14:52;;;;;;;24.10;15.20;;;;;;;11.68;92.55;98726.08;177977;1264;45787;-86
2023/11/11 11:18:56;;;;;;;29.60;17.40;;;;;;;11.64;92.51;98722.80;177910;1263;46076;-86
2023/11/11 11:23:07;;;;;;;16.90;13.50;;;;;;;11.60;92.71;98719.27;177875;1265;46077;-87
2023/11/11 11:27:12;;;;;;;22.40;14.50;;;;;;;11.54;92.36;98712.75;178100;1262;45930;-86
2023/11/11 11:31:16;;;;;;;20.50;15.10;;;;;;;11.49;92.73;98710.79;177900;1264;58709;-87
2023/11/11 11:35:27;;;;;;;22.60;13.10;;;;;;;11.48;93.05;98713.71;179098;1261;46002;-88
2023/11/11 11:39:44;;;;;;;20.00;13.30;;;;;;;11.52;92.20;98713.31;179477;1264;44502;-87
2023/11/11 11:43:53;;;;;;;17.60;13.10;;;;;;;11.56;91.83;98722.58;178692;1263;46166;-86
2023/11/11 11:47:57;;;;;;;16.40;12.00;;;;;;;11.65;91.96;98726.46;178952;1262;44234;-88
2023/11/11 11:52:01;;;;;;;25.10;16.30;;;;;;;11.66;90.39;98727.92;179171;1262;60145;-87
2023/11/11 11:56:06;;;;;;;29.30;20.00;;;;;;;11.62;89.41;98728.13;178388;1262;46081;-84
2023/11/11 12:00:13;;;;;;;26.30;16.90;;;;;;;11.61;90.36;98731.34;179175;1262;43987;-88
2023/11/11 12:04:20;;;;;;;23.60;18.40;;;;;;;11.61;90.76;98729.55;178614;1264;46166;-85
2023/11/11 12:08:24;;;;;;;20.30;13.60;;;;;;;11.62;90.58;98734.46;178666;1263;44517;-84
2023/11/11 12:12:31;;;;;;;15.50;12.80;;;;;;;11.66;89.63;98728.42;179856;1262;59314;-85
2023/11/11 12:16:42;;;;;;;20.90;12.70;;;;;;;11.66;89.33;98730.71;179910;1262;44190;-84
2023/11/11 12:20:47;;;;;;;25.30;13.00;;;;;;;11.63;89.13;98731.30;180131;1262;45794;-86
2023/11/11 12:24:54;;;;;;;15.00;11.10;;;;;;;11.64;88.56;98726.03;179319;1262;44615;-87
2023/11/11 12:28:57;;;;;;;19.50;12.10;;;;;;;11.65;87.63;98724.49;178949;1262;46121;-85
2023/11/11 12:33:10;;;;;;;19.30;12.40;;;;;;;11.65;88.16;98728.06;178061;1264;59404;-85
2023/11/11 12:37:20;;;;;;;13.90;10.60;;;;;;;11.63;88.38;98733.39;178132;1261;45970;-85
2023/11/11 12:41:24;;;;;;;17.60;12.20;;;;;;;11.60;89.07;98732.86;178901;1263;44155;-86
2023/11/11 12:45:30;;;;;;;16.30;11.40;;;;;;;11.56;89.41;98734.95;178460;1262;46002;-85
2023/11/11 12:49:33;;;;;;;14.60;11.00;;;;;;;11.51;89.29;98732.68;178987;1261;207405;-86
2023/11/11 12:53:43;;;;;;;17.30;10.10;;;;;;;11.47;89.08;98731.92;178540;1264;59669;-85
2023/11/11 12:57:48;;;;;;;13.80;10.60;;;;;;;11.41;90.02;98738.14;178899;1262;46081;-86
2023/11/11 13:01:52;;;;;;;16.30;11.90;;;;;;;11.36;90.06;98738.49;178821;1262;44738;-85
2023/11/11 13:05:57;;;;;;;17.30;12.50;;;;;;;11.29;90.94;98740.58;179606;1261;44041;-86
2023/11/11 13:10:02;;;;;;;13.10;9.40;;;;;;;11.28;91.63;98740.57;179287;1262;45983;-86
2023/11/11 13:14:07;;;;;;;16.70;12.20;;;;;;;11.25;91.33;98741.92;177885;1262;59581;-84
2023/11/11 13:18:11;;;;;;;16.30;10.10;;;;;;;11.25;91.23;98745.48;178760;1261;44136;-87
2023/11/11 13:22:15;;;;;;;13.00;10.50;;;;;;;11.26;91.75;98750.53;179950;1263;46060;-85
2023/11/11 13:26:20;;;;;;;14.90;11.00;;;;;;;11.27;92.34;98750.77;178180;1261;46239;-85
2023/11/11 13:30:23;;;;;;;11.40;7.80;;;;;;;11.28;91.95;98751.40;178179;1262;49063;-82
2023/11/11 13:34:27;;;;;;;11.50;9.70;;;;;;;11.32;91.41;98750.14;179069;1262;57967;-84
2023/11/11 13:38:31;;;;;;;13.30;8.60;;;;;;;11.36;91.45;98752.64;178523;1261;45838;-84
2023/11/11 13:42:37;;;;;;;12.00;8.00;;;;;;;11.32;91.92;98752.52;178242;1261;46109;-85
2023/11/11 13:46:40;;;;;;;;;;;;;;;11.22;92.19;98757.84;178957;1261;46238;-84
2023/11/11 13:50:44;;;;;;;12.10;9.00;;;;;;;11.08;93.54;98765.08;178673;1262;45760;-84
2023/11/11 13:54:47;;;;;;;70.50;45.90;;;;;;;11.09;95.27;98768.57;178184;1262;60330;-84
2023/11/11 13:58:54;;;;;;;131.40;81.10;;;;;;;11.09;95.22;98773.99;177892;1264;46053;-85
2023/11/11 14:03:01;;;;;;;199.00;128.90;;;;;;;11.07;95.56;98777.59;178750;1262;46024;-86
2023/11/11 14:07:08;;;;;;;154.30;87.00;;;;;;;11.07;94.81;98785.94;178856;1262;44160;-83
2023/11/11 14:11:11;;;;;;;284.70;152.70;;;;;;;10.93;95.17;98789.55;178955;1262;46103;-85
2023/11/11 14:15:17;;;;;;;117.20;71.20;;;;;;;10.88;95.70;98794.52;179018;1263;59539;-84
2023/11/11 14:19:21;;;;;;;120.50;75.20;;;;;;;10.87;96.30;98794.43;178699;1261;45946;-83
2023/11/11 14:23:29;;;;;;;38.90;29.30;;;;;;;10.88;96.64;98797.36;178509;1262;46124;-86
2023/11/11 14:32:44;;;;;;;17.80;15.90;;;;;;;10.91;95.79;98802.05;178672;1262;44357;-85
2023/11/11 14:36:47;;;;;;;24.80;19.00;;;;;;;10.91;95.04;98801.98;179525;1262;59534;-85
2023/11/11 14:40:50;;;;;;;19.90;15.50;;;;;;;10.92;95.15;98807.41;180365;1262;44507;-85
2023/11/11 14:44:55;;;;;;;16.40;12.80;;;;;;;10.89;95.20;98812.82;179997;1262;45924;-84
2023/11/11 14:48:58;;;;;;;14.00;11.90;;;;;;;10.77;95.81;98821.74;178802;1261;45996;-85
2023/11/11 14:53:02;;;;;;;26.30;19.00;;;;;;;10.70;95.86;98823.55;178761;1263;45878;-85
2023/11/11 14:57:05;;;;;;;21.60;13.40;;;;;;;10.68;95.06;98826.23;177746;1263;58682;-85
2023/11/11 15:01:09;;;;;;;23.10;14.10;;;;;;;10.67;95.50;98835.41;178030;1262;46084;-84
2023/11/11 15:05:16;;;;;;;17.80;13.20;;;;;;;10.60;96.36;98840.73;178674;1261;45997;-84
2023/11/11 15:09:21;;;;;;;18.20;14.50;;;;;;;10.52;97.22;98842.65;178207;1262;46010;-84
2023/11/11 15:13:25;;;;;;;19.60;13.50;;;;;;;10.48;97.70;98847.65;179239;1261;46007;-82
2023/11/11 15:17:29;;;;;;;27.50;17.30;;;;;;;10.42;97.82;98852.71;177815;1262;59545;-83
2023/11/11 15:21:32;;;;;;;30.40;17.30;;;;;;;10.35;98.98;98854.82;178663;1263;46179;-84
2023/11/11 15:25:36;;;;;;;49.50;32.20;;;;;;;10.32;99.96;98860.61;178991;1261;44627;-84
2023/11/11 15:29:42;;;;;;;24.60;19.30;;;;;;;10.34;100.00;98865.75;177669;1262;46154;-81
2023/11/11 15:33:46;;;;;;;51.20;34.10;;;;;;;10.33;100.00;98876.11;178525;1263;45950;-82
2023/11/11 15:37:52;;;;;;;24.30;16.60;;;;;;;10.16;100.00;98878.31;177693;1261;58835;-83
2023/11/11 15:41:56;;;;;;;22.00;14.70;;;;;;;9.99;100.00;98878.45;177661;1261;46560;-83
2023/11/11 15:46:04;;;;;;;28.10;18.90;;;;;;;9.91;100.00;98882.84;178693;1262;44078;-84
2023/11/11 15:50:07;;;;;;;36.30;25.00;;;;;;;9.80;99.03;98887.86;178535;1262;46000;-84
2023/11/11 15:54:12;;;;;;;17.80;14.10;;;;;;;9.72;98.20;98895.34;178326;1262;45940;-83
2023/11/11 15:58:16;;;;;;;15.00;10.40;;;;;;;9.66;98.67;98901.59;179202;1262;58993;-84
2023/11/11 16:02:20;;;;;;;11.20;8.70;;;;;;;9.60;98.99;98904.68;178236;1262;44356;-82
2023/11/11 16:06:26;;;;;;;10.20;9.20;;;;;;;9.55;99.34;98906.41;179764;1261;44117;-83
2023/11/11 16:10:32;;;;;;;10.60;9.00;;;;;;;9.51;100.00;98914.02;180050;1262;44180;-83
2023/11/11 16:14:35;;;;;;;9.90;7.50;;;;;;;9.47;100.00;98914.31;180036;1261;44166;-83
2023/11/11 16:18:39;;;;;;;12.10;9.80;;;;;;;9.44;100.00;98918.99;180454;1261;57939;-83
2023/11/11 16:34:24;;;;;;;18.00;10.70;;;;;;;9.35;100.00;98938.65;179274;1264;43955;-72
2023/11/11 16:38:28;;;;;;;15.10;12.10;;;;;;;9.35;100.00;98948.23;179393;1263;46003;-72
2023/11/11 16:42:46;;;;;;;25.00;13.80;;;;;;;9.37;100.00;98951.20;179628;1264;58939;-74
2023/11/11 16:47:04;;;;;;;17.80;12.30;;;;;;;9.41;100.00;98958.51;179872;1264;43707;-74
2023/11/11 16:51:17;;;;;;;10.80;8.80;;;;;;;9.43;100.00;98962.09;179840;1263;43844;-74
2023/11/11 16:55:29;;;;;;;13.90;10.00;;;;;;;9.44;100.00;98969.45;179881;1263;44573;-74
2023/11/11 16:59:34;;;;;;;12.80;10.00;;;;;;;9.44;100.00;98970.50;179881;1261;43795;-72
2023/11/11 17:03:49;;;;;;;15.40;10.80;;;;;;;9.38;100.00;98973.20;179812;1262;58244;-72
2023/11/11 17:08:04;;;;;;;19.80;12.60;;;;;;;9.35;100.00;98980.23;179841;1264;44665;-72
2023/11/11 17:12:24;;;;;;;27.20;14.20;;;;;;;9.29;100.00;98988.92;179981;1263;44719;-72
2023/11/11 17:16:36;;;;;;;19.90;12.70;;;;;;;9.19;100.00;98987.34;179924;1262;46019;-73
2023/11/11 17:21:13;;;;;;;17.20;11.90;;;;;;;9.17;100.00;98995.95;179737;1264;45964;-73
2023/11/11 17:25:24;;;;;;;21.50;12.50;;;;;;;9.08;100.00;98995.38;179852;1261;58699;-73
2023/11/11 17:29:49;;;;;;;19.20;13.30;;;;;;;9.01;100.00;98998.48;180035;1254;88691;31
2023/11/11 17:33:54;;;;;;;15.40;11.30;;;;;;;9.04;100.00;98999.24;178774;1262;46815;-82
2023/11/11 17:38:00;;;;;;;22.50;14.40;;;;;;;8.97;100.00;99005.95;178668;1260;44509;-82
2023/11/11 17:42:04;;;;;;;19.50;12.10;;;;;;;8.92;100.00;99008.88;178303;1260;46140;-83
2023/11/11 17:46:08;;;;;;;19.90;14.30;;;;;;;8.86;100.00;99013.13;178419;1262;59703;-83
2023/11/11 17:50:12;;;;;;;19.10;13.00;;;;;;;8.94;100.00;99019.51;179398;1261;45987;-83
2023/11/11 17:54:16;;;;;;;16.70;11.60;;;;;;;8.96;100.00;99027.07;178160;1260;46191;-83
2023/11/11 17:58:22;;;;;;;19.50;12.80;;;;;;;9.04;100.00;99033.79;178219;1261;46059;-85
2023/11/11 18:02:27;;;;;;;16.60;12.00;;;;;;;9.10;100.00;99034.40;178372;1264;46180;-82
2023/11/11 18:06:30;;;;;;;19.90;14.30;;;;;;;9.13;100.00;99033.44;178008;1262;57889;-84
2023/11/11 18:10:35;;;;;;;18.10;12.10;;;;;;;8.99;100.00;99037.23;178557;1262;46189;-84
2023/11/11 18:14:40;;;;;;;19.10;11.80;;;;;;;8.84;100.00;99043.05;179397;1262;45898;-84
2023/11/11 18:18:44;;;;;;;20.90;13.30;;;;;;;8.73;100.00;99048.54;179811;1262;44675;-83
2023/11/11 18:22:47;;;;;;;15.70;11.50;;;;;;;8.69;100.00;99054.29;177486;1263;46051;-84
2023/11/11 18:26:53;;;;;;;20.20;13.30;;;;;;;8.73;100.00;99056.63;179139;1262;57567;-83
2023/11/11 18:30:57;;;;;;;18.00;14.40;;;;;;;8.79;100.00;99058.56;180007;1262;45970;-86
2023/11/11 18:35:00;;;;;;;22.60;15.20;;;;;;;8.88;100.00;99066.04;179864;1261;46011;-87
2023/11/11 18:39:04;;;;;;;18.70;13.80;;;;;;;8.94;100.00;99069.67;180219;1262;45912;-86
2023/11/11 18:47:47;;;;;;;20.80;13.00;;;;;;;8.99;100.00;99067.21;180419;1264;58206;-87
2023/11/11 18:56:06;;;;;;;14.40;11.20;;;;;;;8.98;100.00;99073.70;179420;1267;44779;-87
2023/11/11 19:00:11;;;;;;;12.60;10.70;;;;;;;8.96;100.00;99073.39;179202;1267;44897;-86
2023/11/11 19:04:15;;;;;;;14.00;11.70;;;;;;;8.89;100.00;99076.17;179235;1266;46123;-86